Spt Pearl — WDD3217 — position and weather

sailwx.info

Track history (hours):
 
Tides and Currents Weather Stations Pressure Air Temp Water Temp Dewpoint Dewpoint Depression Visibility Wind Speed Wind Dir Waves Ship Positions

Spt Pearl

Owner: SPT OFFSHORE, LLC, Freeport, TX. More information available from US FCC via Universal Licensing System and Coast Guard Vessel Documentation Center.

Last reported at 2017-Dec-01 18:24 UTC. Time now 2017-Dec-17 19:38 UTC.
Position N 32°42' W 117°09'.
Warning: this ship's position is 16 days out of date.

Date/timePositionNaut miles runAvg speedWind from/ knotsBaromVisibWave heightAir tempDewpointWater temp
2017-Dec-01 18:24N 32°42' W 117°09'0 0.0
2017-Dec-01 18:00N 32°42' W 117°09'0 0.0
2017-Nov-30 22:28N 32°42' W 117°09'0 0.0
2017-Nov-30 21:54N 32°42' W 117°09'0 0.0
2017-Nov-30 21:30N 32°42' W 117°09'  
2017-Nov-27 00:00N 32°42' W 117°09'0 0.0
2017-Nov-26 23:18N 32°42' W 117°09'0 0.0
2017-Nov-26 12:25N 32°42' W 117°09'0 0.0
2017-Nov-26 04:21N 32°42' W 117°09'0 0.0
2017-Nov-26 04:00N 32°42' W 117°09'0 0.0
2017-Nov-26 03:28N 32°42' W 117°09'0 0.0
2017-Nov-26 02:33N 32°42' W 117°09'0 0.1
2017-Nov-26 02:30N 32°42' W 117°09'0 0.0
2017-Nov-26 01:40N 32°42' W 117°09'0 0.0
2017-Nov-26 01:29N 32°42' W 117°09'0 0.0
2017-Nov-25 17:45N 32°42' W 117°09'0 0.0
2017-Nov-25 08:50N 32°42' W 117°09'0 0.0
2017-Nov-25 08:30N 32°42' W 117°09'0 0.0
2017-Nov-25 04:46N 32°42' W 117°09'3 0.1
2017-Nov-23 08:28N 32°43' W 117°12'4 8.4
2017-Nov-23 08:00N 32°39' W 117°14'5 9.0
2017-Nov-23 07:30N 32°36' W 117°17'4 8.8
2017-Nov-23 07:00N 32°33' W 117°21'4 8.5
2017-Nov-23 06:30N 32°30' W 117°25'4 8.7
2017-Nov-23 06:00N 32°28' W 117°29'4 8.6
2017-Nov-23 05:30N 32°25' W 117°33'4 8.5
2017-Nov-23 05:00N 32°22' W 117°37'4 8.7
2017-Nov-23 04:30N 32°19' W 117°41'4 8.6
2017-Nov-23 04:00N 32°17' W 117°45'4 8.9
2017-Nov-23 03:30N 32°14' W 117°49'4 8.7
2017-Nov-23 03:00N 32°11' W 117°53'  
Track history (hours):
 
Tides and Currents Weather Stations Pressure Air Temp Water Temp Dewpoint Dewpoint Depression Visibility Wind Speed Wind Dir Waves Ship Positions

Spt Pearl

Owner: SPT OFFSHORE, LLC, Freeport, TX. More information available from US FCC via Universal Licensing System and Coast Guard Vessel Documentation Center.

Last reported at 2017-Dec-01 18:24 UTC. Time now 2017-Dec-17 19:38 UTC.
Position N 32°42' W 117°09'.
Warning: this ship's position is 16 days out of date.

Date/timePositionNaut miles runAvg speedWind from/ knotsBaromVisibWave heightAir tempDewpointWater temp
2017-Dec-01 18:24N 32°42' W 117°09'0 0.0
2017-Dec-01 18:00N 32°42' W 117°09'0 0.0
2017-Nov-30 22:28N 32°42' W 117°09'0 0.0
2017-Nov-30 21:54N 32°42' W 117°09'0 0.0
2017-Nov-30 21:30N 32°42' W 117°09'  
2017-Nov-27 00:00N 32°42' W 117°09'0 0.0
2017-Nov-26 23:18N 32°42' W 117°09'0 0.0
2017-Nov-26 12:25N 32°42' W 117°09'0 0.0
2017-Nov-26 04:21N 32°42' W 117°09'0 0.0
2017-Nov-26 04:00N 32°42' W 117°09'0 0.0
2017-Nov-26 03:28N 32°42' W 117°09'0 0.0
2017-Nov-26 02:33N 32°42' W 117°09'0 0.1
2017-Nov-26 02:30N 32°42' W 117°09'0 0.0
2017-Nov-26 01:40N 32°42' W 117°09'0 0.0
2017-Nov-26 01:29N 32°42' W 117°09'0 0.0
2017-Nov-25 17:45N 32°42' W 117°09'0 0.0
2017-Nov-25 08:50N 32°42' W 117°09'0 0.0
2017-Nov-25 08:30N 32°42' W 117°09'0 0.0
2017-Nov-25 04:46N 32°42' W 117°09'3 0.1
2017-Nov-23 08:28N 32°43' W 117°12'4 8.4
2017-Nov-23 08:00N 32°39' W 117°14'5 9.0
2017-Nov-23 07:30N 32°36' W 117°17'4 8.8
2017-Nov-23 07:00N 32°33' W 117°21'4 8.5
2017-Nov-23 06:30N 32°30' W 117°25'4 8.7
2017-Nov-23 06:00N 32°28' W 117°29'4 8.6
2017-Nov-23 05:30N 32°25' W 117°33'4 8.5
2017-Nov-23 05:00N 32°22' W 117°37'4 8.7
2017-Nov-23 04:30N 32°19' W 117°41'4 8.6
2017-Nov-23 04:00N 32°17' W 117°45'4 8.9
2017-Nov-23 03:30N 32°14' W 117°49'4 8.7
2017-Nov-23 03:00N 32°11' W 117°53'  

Dump ship's entire track history